Terminal Aerodrome Forecast
Issued by NWS Cleveland, OH

Home | Current Version | Previous Version | Text Only | Print | Product List | Glossary On
Versions: 1 2 3 4 5 6 7 8 9 10 11 12 13 14 15 16 17 18 19 20
000
FTUS41 KCLE 051700
TAFMFD
TAF
KMFD 051732Z 0518/0618 28005KT P6SM BKN050
     FM060400 VRB03KT 5SM BR SCT025 BKN100
     FM060800 20003KT 3SM BR SCT012 BKN025
      TEMPO 0610/0614 1SM BR
     FM061500 27007KT P6SM SCT050 BKN120=

USA.gov is the U.S. government's official web portal to all federal, state and local government web resources and services.